Terminal Aerodrome Forecast
Issued by NWS

Home | Current Version | Previous Version | Graphics & Text | Print | Product List | Glossary On
Versions: 1 2 3 4 5 6 7 8 9 10 11 12 13 14 15 16 17 18 19 20 21 22 23
352
FTUS45 KGGW 060520
TAFOLF
TAF
KOLF 060520Z 0606/0706 VRB06KT P6SM SCT250 WS020/28035KT
     FM061200 25010KT P6SM BKN120 WS020/28045KT
     FM061800 26020G28KT P6SM BKN120 WS020/26050KT
     FM062100 28026G37KT P6SM BKN090=

USA.gov is the U.S. government's official web portal to all federal, state and local government web resources and services.